createdAt,value
2023-03-30T00:02:55.549Z,19.35
2023-03-30T00:07:54.396Z,26.10
2023-03-30T00:25:44.871Z,22.23
2023-03-30T00:41:49.571Z,22.17
2023-03-30T00:46:46.020Z,22.60
2023-03-30T00:51:42.688Z,25.38
2023-03-30T00:56:39.377Z,24.08
2023-03-30T01:01:42.313Z,23.85
2023-03-30T01:06:40.802Z,27.05
2023-03-30T01:11:37.541Z,23.27
2023-03-30T01:29:10.183Z,28.27
2023-03-30T01:34:38.179Z,21.83
2023-03-30T01:40:03.856Z,27.55
2023-03-30T01:45:25.122Z,23.67
2023-03-30T01:50:28.949Z,21.90
2023-03-30T01:55:31.178Z,21.60
2023-03-30T02:00:29.035Z,22.63
2023-03-30T02:05:27.655Z,23.35
2023-03-30T02:10:29.917Z,25.77
2023-03-30T02:15:33.419Z,27.05
2023-03-30T02:20:30.350Z,23.67
2023-03-30T02:25:29.008Z,27.42
2023-03-30T02:30:26.615Z,29.45
2023-03-30T02:35:56.477Z,25.27
2023-03-30T02:41:18.874Z,26.00
2023-03-30T02:46:33.042Z,24.42
2023-03-30T02:51:38.585Z,26.63
2023-03-30T02:56:47.283Z,22.52
2023-03-30T03:01:51.816Z,29.27
2023-03-30T03:06:52.766Z,22.88
2023-03-30T03:11:49.353Z,27.02
2023-03-30T03:16:45.768Z,23.48
2023-03-30T03:21:42.243Z,23.63
2023-03-30T03:26:38.621Z,22.48
2023-03-30T03:31:35.744Z,25.92
2023-03-30T03:36:32.438Z,26.25
2023-03-30T03:41:28.896Z,27.20
2023-03-30T03:46:25.406Z,21.25
2023-03-30T03:51:21.858Z,23.05
2023-03-30T03:56:18.341Z,29.83
2023-03-30T04:01:15.187Z,29.65
2023-03-30T04:06:11.738Z,21.88
2023-03-30T04:11:11.809Z,24.30
2023-03-30T04:16:08.535Z,25.48
2023-03-30T04:21:07.505Z,24.10
2023-03-30T04:26:05.454Z,29.98
2023-03-30T04:31:04.472Z,27.23
2023-03-30T04:36:01.623Z,29.30
2023-03-30T04:41:00.459Z,25.08
2023-03-30T04:45:57.099Z,27.13
2023-03-30T04:50:54.078Z,26.83
2023-03-30T04:55:51.796Z,24.38
2023-03-30T05:00:48.308Z,24.98
2023-03-30T05:05:44.774Z,25.27
2023-03-30T05:10:41.316Z,24.75
2023-03-30T05:15:37.766Z,26.25
2023-03-30T05:20:34.164Z,26.52
2023-03-30T05:25:31.240Z,22.67
2023-03-30T05:30:27.702Z,24.80
2023-03-30T05:35:24.120Z,22.17
2023-03-30T05:40:20.500Z,30.05
2023-03-30T05:45:17.366Z,24.23
2023-03-30T05:50:14.112Z,22.20
2023-03-30T05:55:11.990Z,18.88
2023-03-30T06:00:10.355Z,20.08
2023-03-30T06:05:08.349Z,22.88
2023-03-30T06:10:06.366Z,22.88
2023-03-30T06:15:03.388Z,18.20
2023-03-30T06:19:59.911Z,19.55
2023-03-30T06:24:56.698Z,19.98
2023-03-30T06:29:53.136Z,19.52
2023-03-30T06:34:49.525Z,18.42
2023-03-30T06:39:46.285Z,22.27
2023-03-30T06:44:42.861Z,21.55
2023-03-30T06:49:39.375Z,19.27
2023-03-30T06:54:35.844Z,19.80
2023-03-30T06:59:34.513Z,21.30
2023-03-30T07:04:34.533Z,25.13
2023-03-30T07:09:31.014Z,20.85
2023-03-30T07:14:27.552Z,25.45
2023-03-30T07:19:23.931Z,21.55
2023-03-30T07:24:20.355Z,17.48
2023-03-30T07:29:16.853Z,18.05
2023-03-30T07:34:13.558Z,17.95
2023-03-30T07:39:11.100Z,15.23
2023-03-30T07:44:07.767Z,17.77
2023-03-30T07:49:04.395Z,14.63
2023-03-30T07:54:01.429Z,18.67
2023-03-30T07:58:59.625Z,11.50
2023-03-30T08:03:58.868Z,12.57
2023-03-30T08:08:56.611Z,11.43
2023-03-30T08:13:53.254Z,16.13
2023-03-30T08:18:54.661Z,12.98
2023-03-30T08:23:57.858Z,11.75
2023-03-30T08:28:55.355Z,15.57
2023-03-30T08:33:52.296Z,9.75
2023-03-30T08:38:48.881Z,11.55
2023-03-30T08:44:02.268Z,10.70
2023-03-30T08:49:01.208Z,14.40
2023-03-30T08:54:08.805Z,15.20
2023-03-30T08:59:27.163Z,13.68
2023-03-30T09:04:57.245Z,11.43
2023-03-30T09:09:55.358Z,10.52
2023-03-30T09:14:58.401Z,12.75
2023-03-30T09:20:06.875Z,13.35
2023-03-30T09:25:12.147Z,12.98
2023-03-30T09:30:21.277Z,14.18
2023-03-30T09:35:28.620Z,10.82
2023-03-30T09:40:44.090Z,11.75
2023-03-30T09:45:42.836Z,11.30
2023-03-30T09:50:42.846Z,13.52
2023-03-30T09:55:39.428Z,11.63
2023-03-30T10:00:36.597Z,15.60
2023-03-30T10:05:36.569Z,10.90
2023-03-30T10:10:38.266Z,10.07
2023-03-30T10:15:39.083Z,11.70
2023-03-30T10:20:36.625Z,9.98
2023-03-30T10:25:33.898Z,11.90
2023-03-30T10:30:32.241Z,10.98
2023-03-30T10:35:36.970Z,13.57
2023-03-30T10:40:39.263Z,11.68
2023-03-30T10:45:50.128Z,10.93
2023-03-30T10:51:05.172Z,16.15
2023-03-30T10:56:26.319Z,11.50
2023-03-30T11:01:50.706Z,10.50
2023-03-30T11:06:49.667Z,10.05
2023-03-30T11:12:02.581Z,10.30
2023-03-30T11:22:00.840Z,9.48
2023-03-30T11:27:18.476Z,12.45
2023-03-30T11:32:27.121Z,10.20
2023-03-30T11:37:33.787Z,8.55
2023-03-30T11:42:32.043Z,8.35
2023-03-30T11:47:53.519Z,9.02
2023-03-30T11:53:22.305Z,8.15
2023-03-30T11:58:48.007Z,7.82
2023-03-30T12:03:50.633Z,8.30
2023-03-30T12:09:03.049Z,13.00
2023-03-30T12:14:00.722Z,8.30
2023-03-30T12:19:22.145Z,10.45
2023-03-30T12:24:29.175Z,9.43
2023-03-30T12:34:51.311Z,13.30
2023-03-30T12:40:19.059Z,11.98
2023-03-30T12:45:15.476Z,11.50
2023-03-30T12:50:31.034Z,13.90
2023-03-30T12:55:27.380Z,16.83
2023-03-30T13:00:32.658Z,15.02
2023-03-30T13:05:36.604Z,14.23
2023-03-30T13:10:36.842Z,17.17
2023-03-30T13:15:35.433Z,11.75
2023-03-30T13:20:56.509Z,18.27
2023-03-30T13:26:04.611Z,15.40
2023-03-30T13:31:42.750Z,12.90
2023-03-30T13:37:06.752Z,13.52
2023-03-30T13:42:11.805Z,11.68
2023-03-30T13:47:27.236Z,11.80
2023-03-30T13:52:31.972Z,10.60
2023-03-30T13:57:35.425Z,16.08
2023-03-30T14:02:31.944Z,8.35
2023-03-30T14:07:30.219Z,12.98
2023-03-30T14:12:27.037Z,11.30
2023-03-30T14:17:24.864Z,10.27
2023-03-30T14:22:27.133Z,8.00
2023-03-30T14:27:23.564Z,11.13
2023-03-30T14:32:23.164Z,11.75
2023-03-30T14:37:22.438Z,10.63
2023-03-30T14:42:24.078Z,10.48
2023-03-30T14:47:23.710Z,9.67
2023-03-30T14:52:22.608Z,11.50
2023-03-30T14:57:21.256Z,10.25
2023-03-30T15:02:23.828Z,11.77
2023-03-30T15:07:22.873Z,14.40
2023-03-30T15:12:25.099Z,10.05
2023-03-30T15:17:24.789Z,11.35
2023-03-30T15:22:28.183Z,8.88
2023-03-30T15:27:24.702Z,10.07
2023-03-30T15:32:29.295Z,10.90
2023-03-30T15:37:25.886Z,12.30
2023-03-30T15:42:41.605Z,9.27
2023-03-30T15:47:39.609Z,9.45
2023-03-30T15:52:37.832Z,11.80
2023-03-30T15:57:35.981Z,10.73
2023-03-30T16:02:32.437Z,11.57
2023-03-30T16:07:31.707Z,9.85
2023-03-30T16:12:30.208Z,11.57
2023-03-30T16:17:26.698Z,13.40
2023-03-30T16:22:23.113Z,12.68
2023-03-30T16:27:19.560Z,10.63
2023-03-30T16:32:16.216Z,13.52
2023-03-30T16:37:12.672Z,15.27
2023-03-30T16:42:09.095Z,12.25
2023-03-30T16:47:05.484Z,13.80
2023-03-30T16:52:03.208Z,16.77
2023-03-30T16:57:01.384Z,18.15
2023-03-30T17:01:59.436Z,16.25
2023-03-30T17:06:56.095Z,21.27
2023-03-30T17:11:52.588Z,15.13
2023-03-30T17:16:49.045Z,15.77
2023-03-30T17:21:46.001Z,12.43
2023-03-30T17:26:42.871Z,17.17
2023-03-30T17:31:39.436Z,18.58
2023-03-30T17:36:35.904Z,15.15
2023-03-30T17:41:34.164Z,22.92
2023-03-30T17:46:32.362Z,16.38
2023-03-30T17:51:29.085Z,17.58
2023-03-30T17:56:26.097Z,19.08
2023-03-30T18:01:24.912Z,17.70
2023-03-30T18:06:21.698Z,16.98
2023-03-30T18:11:18.913Z,14.23
2023-03-30T18:16:19.602Z,16.58
2023-03-30T18:21:17.150Z,13.57
2023-03-30T18:26:14.154Z,14.40
2023-03-30T18:31:11.373Z,19.33
2023-03-30T18:36:12.916Z,13.35
2023-03-30T18:41:13.525Z,20.80
2023-03-30T18:46:13.040Z,14.50
2023-03-30T18:51:12.132Z,18.38
2023-03-30T18:56:12.185Z,21.85
2023-03-30T19:01:10.854Z,21.63
2023-03-30T19:06:19.746Z,21.85
2023-03-30T19:11:20.365Z,16.98
2023-03-30T19:16:18.755Z,19.73
2023-03-30T19:21:17.591Z,17.10
2023-03-30T19:26:14.343Z,20.17
2023-03-30T19:31:15.738Z,16.83
2023-03-30T19:36:13.318Z,17.53
2023-03-30T19:41:11.518Z,24.65
2023-03-30T19:46:08.794Z,17.05
2023-03-30T19:51:05.740Z,18.10
2023-03-30T19:56:02.445Z,17.80
2023-03-30T20:01:04.188Z,17.63
2023-03-30T20:06:01.576Z,21.58
2023-03-30T20:10:59.394Z,14.75
2023-03-30T20:16:22.826Z,23.45
2023-03-30T20:21:22.555Z,22.88
2023-03-30T20:26:19.507Z,23.23
2023-03-30T20:31:16.742Z,24.83
2023-03-30T20:36:13.190Z,14.88
2023-03-30T20:41:12.542Z,22.35
2023-03-30T20:46:09.597Z,22.35
2023-03-30T20:51:16.321Z,17.05
2023-03-30T20:56:12.966Z,23.33
2023-03-30T21:01:25.143Z,21.15
2023-03-30T21:06:23.751Z,19.20
2023-03-30T21:11:21.008Z,21.67
2023-03-30T21:16:18.060Z,28.63
2023-03-30T21:21:14.594Z,22.75
2023-03-30T21:26:12.400Z,25.33
2023-03-30T21:31:11.644Z,23.05
2023-03-30T21:36:08.832Z,26.00
2023-03-30T21:41:12.690Z,24.15
2023-03-30T21:46:12.660Z,18.95
2023-03-30T21:51:13.651Z,30.38
2023-03-30T21:56:13.923Z,24.85
2023-03-30T22:01:12.688Z,23.00
2023-03-30T22:06:11.254Z,32.22
2023-03-30T22:11:12.328Z,18.05
2023-03-30T22:16:32.130Z,20.05
2023-03-30T22:21:33.750Z,27.55
2023-03-30T22:26:30.326Z,17.77
2023-03-30T22:31:27.485Z,18.05
2023-03-30T22:36:29.672Z,19.95
2023-03-30T22:41:27.164Z,29.45
2023-03-30T22:46:25.859Z,29.83
2023-03-30T22:51:26.561Z,27.23
2023-03-30T22:56:23.410Z,15.25
2023-03-30T23:01:21.400Z,25.02
2023-03-30T23:06:18.868Z,29.80
2023-03-30T23:11:15.935Z,30.40
2023-03-30T23:16:12.353Z,24.58
2023-03-30T23:21:10.850Z,26.48
2023-03-30T23:26:10.067Z,29.60
2023-03-30T23:31:20.866Z,27.92
2023-03-30T23:36:17.751Z,29.10
2023-03-30T23:41:16.387Z,25.67
2023-03-30T23:46:13.510Z,20.05
2023-03-30T23:51:10.150Z,21.65
2023-03-30T23:56:13.557Z,27.48
